DIAP Airport Information

Runway Information
Runway 03 Length 9843 ft width 164 ft
Elevation 21 ft Threshold 0 ft Heading 23
Runway 21 Length 9843 ft Width 164 ft
Elevation 11 ft Threshold 0 ft Heading 203
Airport Frequencies
Type A/G Name RDO Frequency 568 MHZ
Type ACC Name CON Frequency 121.1 MHZ
Type AFIS Name INFO Frequency 129.1 MHZ
Type ATIS Name ATIS Frequency 126.6 MHZ
Type MISC Name VHF/DF Frequency 118.1 MHZ
Type TWR Name TWR Frequency 118.1 MHZ
Airport Navaids
Type VOR-DME Name Abidjan Frequency 114300 KHZ
Type NDB Name Abidjan Frequency 306 KHZ
Type NDB Name Abidjan Felix Houphouet Boigny Frequency 294 KHZ
Airport Weather Information & NOTAM
ADDS - METARS form results

(0545 UTC 23 August 2019)
Data provider http://aviationweather.gov/metar/data/
 
METAR text: DIAP 230530Z 24004KT 8000 FEW011 BKN040 24/23 Q1015 NOSIG
Conditions at: DIAP (ABIDJAN/PORT BOU, CI) observed 0530 UTC 23 August 2019
Temperature: 24.0°C (75°F)
Dewpoint: 23.0°C (73°F) [RH = 94%]
Pressure (altimeter): 29.97 inches Hg (1015.0 mb)
Winds: from the WSW (240 degrees) at 5 MPH (4 knots; 2.1 m/s)
Visibility: 5 miles ( 8 km)
Ceiling: 4000 feet AGL
Clouds: few clouds at 1100 feet AGL
broken clouds at 4000 feet AGL
Weather: no significant weather observed at this time

METAR text: DIAP 230500Z 25005KT 8000 FEW011 BKN040 24/23 Q1015 NOSIG
Conditions at: DIAP (ABIDJAN/PORT BOU, CI) observed 0500 UTC 23 August 2019
Temperature: 24.0°C (75°F)
Dewpoint: 23.0°C (73°F) [RH = 94%]
Pressure (altimeter): 29.97 inches Hg (1015.0 mb)
Winds: from the WSW (250 degrees) at 6 MPH (5 knots; 2.6 m/s)
Visibility: 5 miles ( 8 km)
Ceiling: 4000 feet AGL
Clouds: few clouds at 1100 feet AGL
broken clouds at 4000 feet AGL
Weather: no significant weather observed at this time

Forecast for: DIAP (ABIDJAN/PORT BOU, CI)
Text: TAF DIAP 222300Z 2300/2406 24005KT 9999 SCT012 BKN040
Forecast period: 0000 UTC 23 August 2019 to 0600 UTC 24 August 2019
Forecast type: FROM: standard forecast or significant change
Winds: from the WSW (240 degrees) at 6 MPH (5 knots; 2.6 m/s)
Visibility: 6 or more miles 10+ km)
Ceiling: 4000 feet AGL
Clouds: scattered clouds at 1200 feet AGL
broken clouds at 4000 feet AGL
Weather: no significant weather forecast for this period
Text: TEMPO 2303/2307 BKN012
Forecast period: 0300 to 0700 UTC 23 August 2019
Forecast type: TEMPORARY: The following changes expected for less than half the time period
Visibility: missing
Ceiling: 1200 feet AGL
Clouds: broken clouds at 1200 feet AGL
Weather: no significant weather forecast for this period
Text: TEMPO 2312/2316 BKN012
Forecast period: 1200 to 1600 UTC 23 August 2019
Forecast type: TEMPORARY: The following changes expected for less than half the time period
Visibility: missing
Ceiling: 1200 feet AGL
Clouds: broken clouds at 1200 feet AGL
Weather: no significant weather forecast for this period